Time;durP1;ratioP1;P1;durP2;ratioP2;P2;SDS_P1;SDS_P2;PMS_P1;PMS_P2;Temp;Humidity;BMP_temperature;BMP_pressure;BME280_temperature;BME280_humidity;BME280_pressure;Samples;Min_cycle;Max_cycle;Signal;HPM_P1;HPM_P2
2022/11/26 00:02:16;;;;;;;0.40;0.40;;;15.00;95.70;;;;;;5111466;28;20305;-62
2022/11/26 00:05:06;;;;;;;0.40;0.40;;;15.00;95.70;;;;;;5111462;28;20287;-62
2022/11/26 00:07:56;;;;;;;0.40;0.40;;;15.00;95.60;;;;;;5111370;28;20201;-62
2022/11/26 00:10:44;;;;;;;0.40;0.40;;;15.00;95.70;;;;;;5111481;28;20689;-62
2022/11/26 00:13:32;;;;;;;0.40;0.40;;;15.00;95.60;;;;;;5111262;28;20630;-62
2022/11/26 00:16:20;;;;;;;0.40;0.40;;;15.00;95.60;;;;;;5106910;28;20571;-62
2022/11/26 00:19:09;;;;;;;0.40;0.40;;;15.00;95.90;;;;;;5091902;28;20216;-62
2022/11/26 00:21:58;;;;;;;0.40;0.40;;;15.00;95.70;;;;;;5090801;28;20216;-62
2022/11/26 00:24:46;;;;;;;0.40;0.40;;;15.00;95.60;;;;;;5092133;28;20596;-62
2022/11/26 00:27:34;;;;;;;0.40;0.40;;;15.00;95.60;;;;;;5091791;28;20293;-62
2022/11/26 00:30:25;;;;;;;0.50;0.50;;;15.00;95.60;;;;;;5095704;28;20251;-62
2022/11/26 00:33:13;;;;;;;1.60;1.60;;;14.90;95.60;;;;;;5096098;28;20687;-62
2022/11/26 00:36:04;;;;;;;0.40;0.40;;;14.90;95.60;;;;;;5096588;28;20274;-62
2022/11/26 00:38:56;;;;;;;0.40;0.40;;;14.90;95.60;;;;;;5096797;28;20200;-62
2022/11/26 00:41:49;;;;;;;0.40;0.40;;;14.40;95.40;;;;;;5097664;28;20216;-62
2022/11/26 00:44:37;;;;;;;0.40;0.40;;;14.90;96.00;;;;;;5096396;28;20200;-62
2022/11/26 00:47:25;;;;;;;0.40;0.40;;;14.80;95.80;;;;;;5096303;28;20200;-62
2022/11/26 00:50:16;;;;;;;0.40;0.40;;;14.90;95.90;;;;;;5096154;28;20243;-62
2022/11/26 00:53:05;;;;;;;0.40;0.40;;;14.80;96.00;;;;;;5096187;28;20203;-62
2022/11/26 00:55:55;;;;;;;0.40;0.40;;;14.90;96.20;;;;;;5096201;28;20634;-62
2022/11/26 00:58:43;;;;;;;0.40;0.40;;;14.90;96.50;;;;;;5096355;28;20464;-62
2022/11/26 01:01:31;;;;;;;0.40;0.40;;;14.90;96.50;;;;;;5095186;28;20404;-62
2022/11/26 01:04:19;;;;;;;0.40;0.40;;;15.00;96.60;;;;;;5095920;28;20328;-62
2022/11/26 01:07:09;;;;;;;0.43;0.43;;;15.00;96.60;;;;;;5095494;28;20650;-62
2022/11/26 01:09:58;;;;;;;0.40;0.40;;;15.00;96.50;;;;;;5095329;28;20273;-62
2022/11/26 01:12:48;;;;;;;0.40;0.40;;;15.00;96.40;;;;;;5095242;28;20196;-62
2022/11/26 01:15:36;;;;;;;0.50;0.50;;;15.10;96.10;;;;;;5093732;28;20321;-63
2022/11/26 01:18:25;;;;;;;0.40;0.40;;;15.10;96.10;;;;;;5115076;28;20287;-63
2022/11/26 01:21:13;;;;;;;0.40;0.40;;;15.20;96.10;;;;;;5113329;28;20221;-62
2022/11/26 01:24:01;;;;;;;0.40;0.40;;;15.10;95.90;;;;;;5114259;28;20278;-62
2022/11/26 01:26:50;;;;;;;0.40;0.40;;;15.10;95.90;;;;;;5114834;28;20199;-62
2022/11/26 01:29:39;;;;;;;1.02;1.02;;;15.10;95.90;;;;;;5114145;28;20300;-62
2022/11/26 01:32:27;;;;;;;0.40;0.40;;;15.20;95.90;;;;;;5113769;28;20195;-62
2022/11/26 01:35:18;;;;;;;0.40;0.40;;;15.10;95.80;;;;;;5114066;28;20468;-62
2022/11/26 01:38:06;;;;;;;0.40;0.40;;;15.10;95.80;;;;;;5113418;28;20243;-63
2022/11/26 01:41:06;;;;;;;0.40;0.40;;;15.20;95.90;;;;;;5112917;28;20223;-62
2022/11/26 01:43:57;;;;;;;0.40;0.40;;;15.10;96.30;;;;;;5113965;28;20631;-62
2022/11/26 01:46:47;;;;;;;0.40;0.40;;;15.10;96.00;;;;;;5114132;28;20209;-62
2022/11/26 01:49:35;;;;;;;0.40;0.40;;;15.10;95.90;;;;;;5113742;28;20318;-62
2022/11/26 01:52:25;;;;;;;0.40;0.40;;;15.10;95.90;;;;;;5114565;28;20274;-62
2022/11/26 01:55:15;;;;;;;0.40;0.40;;;15.00;95.90;;;;;;5133023;28;20629;-62
2022/11/26 01:58:05;;;;;;;0.40;0.40;;;15.00;96.20;;;;;;5134882;28;20223;-63
2022/11/26 02:00:53;;;;;;;0.40;0.40;;;15.00;95.90;;;;;;5134641;28;20302;-63
2022/11/26 02:03:49;;;;;;;0.40;0.40;;;15.00;95.80;;;;;;5116757;28;20539;-62
2022/11/26 02:06:38;;;;;;;0.40;0.40;;;14.90;95.90;;;;;;5114480;28;20314;-62
2022/11/26 02:09:28;;;;;;;0.40;0.40;;;14.90;95.90;;;;;;5113563;28;20215;-62
2022/11/26 02:12:16;;;;;;;0.40;0.40;;;14.90;95.90;;;;;;5113134;28;20270;-62
2022/11/26 02:15:05;;;;;;;0.40;0.40;;;14.90;96.00;;;;;;5113564;28;20274;-62
2022/11/26 02:17:57;;;;;;;0.40;0.40;;;14.90;96.00;;;;;;5113295;28;20678;-62
2022/11/26 02:20:54;;;;;;;0.50;0.50;;;14.90;96.40;;;;;;5112850;28;20314;-62
2022/11/26 02:24:20;;;;;;;0.40;0.40;;;14.90;96.50;;;;;;5113404;28;20203;-62
2022/11/26 02:27:37;;;;;;;0.40;0.40;;;15.00;96.50;;;;;;5111977;28;20208;-62
2022/11/26 02:30:28;;;;;;;0.40;0.40;;;15.10;96.50;;;;;;5110678;27;20275;-62
2022/11/26 02:33:20;;;;;;;0.40;0.40;;;15.20;96.40;;;;;;5112469;28;20455;-63
2022/11/26 02:36:12;;;;;;;0.40;0.40;;;15.20;96.40;;;;;;5112756;28;20251;-62
2022/11/26 02:39:11;;;;;;;0.40;0.40;;;15.30;98.80;;;;;;5117442;28;20244;-63
2022/11/26 02:42:03;;;;;;;0.40;0.40;;;15.40;96.40;;;;;;5131978;28;20294;-62
2022/11/26 02:44:53;;;;;;;2.47;2.35;;;15.40;96.30;;;;;;5132680;28;20275;-63
2022/11/26 02:47:46;;;;;;;0.40;0.40;;;15.50;96.30;;;;;;5132901;28;20231;-63
2022/11/26 02:50:39;;;;;;;0.40;0.40;;;15.50;96.30;;;;;;5130192;28;20271;-62
2022/11/26 02:53:30;;;;;;;0.40;0.40;;;15.60;96.30;;;;;;5114323;28;20218;-62
2022/11/26 02:56:23;;;;;;;0.40;0.40;;;15.50;96.30;;;;;;5112314;28;20670;-63
2022/11/26 02:59:13;;;;;;;0.40;0.40;;;15.50;96.20;;;;;;5112505;28;20237;-62
2022/11/26 03:02:08;;;;;;;0.40;0.40;;;15.60;96.00;;;;;;5111884;28;20221;-62
2022/11/26 03:05:01;;;;;;;0.40;0.40;;;15.60;95.90;;;;;;5112610;28;20205;-63
2022/11/26 03:07:52;;;;;;;0.40;0.40;;;15.50;95.80;;;;;;5112428;28;20280;-62
2022/11/26 03:10:40;;;;;;;0.40;0.40;;;15.50;95.80;;;;;;5111374;28;20222;-62
2022/11/26 03:13:28;;;;;;;0.95;0.95;;;15.50;95.80;;;;;;5112030;28;20275;-62
2022/11/26 03:16:16;;;;;;;0.40;0.40;;;15.50;95.90;;;;;;5106975;28;20283;-62
2022/11/26 03:19:04;;;;;;;0.40;0.40;;;15.50;99.50;;;;;;5091495;28;20211;-62
2022/11/26 03:21:54;;;;;;;0.40;0.40;;;15.50;95.90;;;;;;5091127;28;20283;-63
2022/11/26 03:24:42;;;;;;;0.40;0.40;;;15.50;95.90;;;;;;5091728;28;20204;-63
2022/11/26 03:27:30;;;;;;;0.40;0.40;;;15.40;95.90;;;;;;5091051;28;20737;-63
2022/11/26 03:30:18;;;;;;;0.40;0.40;;;15.40;96.00;;;;;;5090994;28;20223;-62
2022/11/26 03:33:06;;;;;;;9.90;9.10;;;15.30;96.00;;;;;;5091822;28;20204;-62
2022/11/26 03:35:54;;;;;;;0.40;0.40;;;15.20;96.00;;;;;;5092105;28;20672;-62
2022/11/26 03:38:43;;;;;;;0.40;0.40;;;15.30;96.10;;;;;;5091308;28;20206;-62
2022/11/26 03:41:32;;;;;;;0.40;0.40;;;15.20;95.90;;;;;;5091628;28;20191;-62
2022/11/26 03:44:20;;;;;;;0.40;0.40;;;15.20;95.90;;;;;;5091403;28;20588;-62
2022/11/26 03:47:08;;;;;;;0.40;0.40;;;15.10;95.90;;;;;;5090640;28;20283;-63
2022/11/26 03:49:56;;;;;;;0.40;0.40;;;16.80;96.70;;;;;;5091133;28;20215;-62
2022/11/26 03:52:44;;;;;;;0.40;0.40;;;15.10;95.90;;;;;;5090695;28;20207;-63
2022/11/26 03:55:33;;;;;;;0.40;0.40;;;15.10;95.70;;;;;;5090932;28;20273;-62
2022/11/26 03:58:21;;;;;;;0.40;0.40;;;15.10;96.00;;;;;;5091183;28;20200;-62
2022/11/26 04:01:10;;;;;;;0.40;0.40;;;15.10;96.00;;;;;;5089998;28;20252;-62
2022/11/26 04:03:59;;;;;;;0.40;0.40;;;15.10;96.10;;;;;;5090294;28;20714;-62
2022/11/26 04:06:47;;;;;;;0.40;0.40;;;15.10;96.10;;;;;;5090453;28;20211;-62
2022/11/26 04:09:35;;;;;;;0.40;0.40;;;15.00;96.20;;;;;;5090608;28;20228;-62
2022/11/26 04:12:24;;;;;;;0.40;0.40;;;15.00;96.50;;;;;;5090544;28;20692;-62
2022/11/26 04:15:12;;;;;;;0.40;0.40;;;15.00;96.70;;;;;;5091238;28;20203;-62
2022/11/26 04:18:00;;;;;;;0.40;0.40;;;15.00;96.90;;;;;;5090485;28;20196;-62
2022/11/26 04:20:48;;;;;;;0.40;0.40;;;15.10;97.00;;;;;;5091533;28;20781;-63
2022/11/26 04:23:40;;;;;;;0.40;0.40;;;15.10;97.10;;;;;;5090758;28;20216;-62
2022/11/26 04:26:28;;;;;;;0.40;0.40;;;15.10;97.10;;;;;;5091431;28;20702;-62
2022/11/26 04:29:17;;;;;;;0.40;0.40;;;15.10;97.00;;;;;;5090569;28;20226;-62
2022/11/26 04:32:06;;;;;;;0.40;0.40;;;15.20;97.00;;;;;;5091434;28;20200;-62
2022/11/26 04:34:54;;;;;;;0.40;0.40;;;15.10;96.80;;;;;;5091240;28;20192;-62
2022/11/26 04:37:42;;;;;;;0.40;0.40;;;15.10;96.60;;;;;;5090800;28;20329;-63
2022/11/26 04:40:30;;;;;;;0.40;0.40;;;15.20;96.70;;;;;;5090171;28;20224;-63
2022/11/26 04:43:18;;;;;;;0.40;0.40;;;15.10;96.60;;;;;;5092319;28;20226;-62
2022/11/26 04:46:07;;;;;;;0.40;0.40;;;15.10;96.60;;;;;;5091892;28;20711;-62
2022/11/26 04:48:55;;;;;;;0.40;0.40;;;15.10;96.60;;;;;;5092493;28;20283;-62
2022/11/26 04:51:43;;;;;;;0.40;0.40;;;15.10;96.60;;;;;;5091423;28;20566;-62
2022/11/26 04:54:31;;;;;;;0.40;0.40;;;15.10;96.80;;;;;;5092265;28;20672;-62
2022/11/26 04:57:19;;;;;;;0.40;0.40;;;15.10;96.80;;;;;;5091723;28;20196;-63
2022/11/26 05:00:09;;;;;;;0.40;0.40;;;15.10;96.80;;;;;;5091622;28;20771;-62
2022/11/26 05:02:58;;;;;;;0.40;0.40;;;15.10;96.60;;;;;;5092872;28;20233;-62
2022/11/26 05:05:47;;;;;;;0.40;0.40;;;15.10;96.60;;;;;;5091704;28;20200;-63
2022/11/26 05:08:35;;;;;;;0.40;0.40;;;15.10;96.50;;;;;;5091905;28;20200;-62
2022/11/26 05:11:23;;;;;;;0.40;0.40;;;15.10;96.50;;;;;;5091582;28;20710;-62
2022/11/26 05:14:11;;;;;;;0.40;0.40;;;15.10;96.50;;;;;;5091801;28;20783;-62
2022/11/26 05:16:59;;;;;;;0.50;0.50;;;15.10;96.40;;;;;;5105452;28;20203;-62
2022/11/26 05:19:48;;;;;;;0.40;0.40;;;15.00;96.40;;;;;;5113872;28;20816;-62
2022/11/26 05:22:36;;;;;;;0.40;0.40;;;15.10;96.40;;;;;;5114512;28;20583;-62
2022/11/26 05:25:24;;;;;;;0.40;0.40;;;15.10;96.50;;;;;;5114186;28;20744;-62
2022/11/26 05:28:12;;;;;;;0.40;0.40;;;15.00;96.40;;;;;;5114211;28;20278;-62
2022/11/26 05:31:02;;;;;;;0.40;0.40;;;15.10;96.50;;;;;;5114289;28;20302;-62
2022/11/26 05:33:50;;;;;;;0.40;0.40;;;15.00;96.50;;;;;;5115037;28;20227;-63
2022/11/26 05:36:39;;;;;;;0.40;0.40;;;15.10;96.70;;;;;;5114589;28;20203;-62
2022/11/26 05:39:27;;;;;;;0.40;0.40;;;15.00;96.70;;;;;;5113404;28;20219;-62
2022/11/26 05:42:15;;;;;;;0.40;0.40;;;15.00;96.80;;;;;;5114512;28;20199;-62
2022/11/26 05:45:04;;;;;;;0.40;0.40;;;15.00;96.80;;;;;;5113750;28;20379;-63
2022/11/26 05:47:52;;;;;;;0.40;0.40;;;15.00;96.90;;;;;;5114372;28;20191;-62
2022/11/26 05:50:41;;;;;;;0.40;0.40;;;15.00;97.00;;;;;;5113988;28;20703;-62
2022/11/26 05:53:30;;;;;;;0.40;0.40;;;15.00;96.90;;;;;;5113939;28;20202;-62
2022/11/26 05:56:18;;;;;;;0.40;0.40;;;15.00;97.10;;;;;;5114376;28;20199;-62
2022/11/26 05:59:06;;;;;;;0.40;0.40;;;14.90;97.00;;;;;;5113220;28;20302;-62
2022/11/26 06:01:54;;;;;;;0.40;0.40;;;15.00;97.10;;;;;;5113923;28;20679;-62
2022/11/26 06:04:43;;;;;;;0.40;0.40;;;15.00;97.00;;;;;;5113371;28;20219;-62
2022/11/26 06:07:31;;;;;;;0.40;0.40;;;15.00;97.10;;;;;;5113906;28;20667;-62
2022/11/26 06:10:20;;;;;;;0.40;0.40;;;15.00;97.10;;;;;;5113708;28;20211;-62
2022/11/26 06:13:08;;;;;;;0.93;0.93;;;14.90;97.10;;;;;;5113629;28;20210;-62
2022/11/26 06:15:56;;;;;;;0.40;0.40;;;15.00;97.10;;;;;;5112776;28;20329;-62
2022/11/26 06:18:44;;;;;;;0.40;0.40;;;15.00;97.20;;;;;;5094079;28;20197;-63
2022/11/26 06:21:32;;;;;;;0.40;0.40;;;15.00;97.10;;;;;;5094485;28;20206;-63
2022/11/26 06:24:20;;;;;;;0.40;0.40;;;14.90;97.00;;;;;;5094570;28;20659;-62
2022/11/26 06:27:10;;;;;;;0.40;0.40;;;14.90;97.00;;;;;;5094305;28;20207;-62
2022/11/26 06:29:58;;;;;;;0.40;0.40;;;14.90;96.90;;;;;;5093432;28;20222;-62
2022/11/26 06:32:46;;;;;;;1.58;1.50;;;14.90;96.90;;;;;;5094286;28;20203;-62
2022/11/26 06:35:34;;;;;;;0.40;0.40;;;14.90;96.90;;;;;;5094299;28;20196;-62
2022/11/26 06:38:22;;;;;;;0.40;0.40;;;14.90;96.90;;;;;;5094506;28;20208;-62
2022/11/26 06:41:10;;;;;;;0.40;0.40;;;14.90;96.90;;;;;;5094045;28;20699;-62
2022/11/26 06:44:00;;;;;;;0.40;0.40;;;14.90;96.90;;;;;;5093507;28;20299;-63
2022/11/26 06:46:48;;;;;;;0.40;0.40;;;14.90;96.80;;;;;;5092998;28;20645;-62
2022/11/26 06:49:36;;;;;;;0.40;0.40;;;14.90;97.00;;;;;;5093369;28;20220;-63
2022/11/26 06:52:24;;;;;;;0.40;0.40;;;14.90;97.00;;;;;;5093875;28;20605;-62
2022/11/26 06:55:12;;;;;;;0.40;0.40;;;14.90;97.00;;;;;;5093673;28;20196;-62
2022/11/26 06:58:00;;;;;;;0.40;0.40;;;14.90;97.10;;;;;;5093594;28;20589;-62
2022/11/26 07:00:49;;;;;;;0.40;0.40;;;14.90;97.20;;;;;;5093538;28;20320;-62
2022/11/26 07:03:38;;;;;;;0.40;0.40;;;14.90;97.20;;;;;;5094162;28;20200;-62
2022/11/26 07:06:28;;;;;;;0.40;0.40;;;15.00;97.30;;;;;;5094063;28;20207;-62
2022/11/26 07:09:16;;;;;;;0.40;0.40;;;14.90;97.30;;;;;;5093861;28;20625;-62
2022/11/26 07:12:04;;;;;;;0.40;0.40;;;14.90;97.30;;;;;;5094659;28;20218;-62
2022/11/26 07:14:52;;;;;;;0.40;0.40;;;14.90;97.30;;;;;;5096489;28;20253;-62
2022/11/26 07:17:41;;;;;;;0.40;0.40;;;14.90;97.40;;;;;;5111883;28;20205;-62
2022/11/26 07:20:29;;;;;;;0.47;0.47;;;14.90;97.20;;;;;;5114358;28;20225;-62
2022/11/26 07:23:17;;;;;;;0.40;0.40;;;14.90;97.30;;;;;;5116336;28;20203;-62
2022/11/26 07:26:07;;;;;;;0.40;0.40;;;14.90;97.20;;;;;;5120039;28;20250;-64
2022/11/26 07:28:55;;;;;;;0.50;0.50;;;14.90;97.20;;;;;;5118107;28;20289;-63
2022/11/26 07:31:43;;;;;;;0.40;0.40;;;14.90;97.30;;;;;;5117503;28;20252;-63
2022/11/26 07:34:32;;;;;;;0.40;0.40;;;14.80;97.10;;;;;;5120627;28;20231;-63
2022/11/26 07:37:20;;;;;;;0.40;0.40;;;14.90;97.20;;;;;;5125362;28;20286;-63
2022/11/26 07:40:09;;;;;;;0.40;0.40;;;14.90;97.20;;;;;;5123756;28;20221;-64
2022/11/26 07:42:59;;;;;;;0.40;0.40;;;14.90;97.20;;;;;;5125248;28;20199;-63
2022/11/26 07:45:47;;;;;;;0.40;0.40;;;14.80;97.10;;;;;;5125206;28;20260;-63
2022/11/26 07:48:38;;;;;;;0.40;0.40;;;14.90;97.20;;;;;;5123707;28;20206;-63
2022/11/26 07:51:29;;;;;;;0.40;0.40;;;14.90;97.10;;;;;;5123520;28;20679;-63
2022/11/26 07:54:17;;;;;;;0.40;0.40;;;14.80;97.10;;;;;;5121921;28;20195;-63
2022/11/26 07:57:05;;;;;;;0.40;0.40;;;14.70;97.10;;;;;;5122273;28;20265;-64
2022/11/26 07:59:53;;;;;;;0.40;0.40;;;14.80;97.10;;;;;;5123008;28;20303;-63
2022/11/26 08:02:41;;;;;;;0.40;0.40;;;14.80;97.20;;;;;;5122105;28;20202;-64
2022/11/26 08:05:29;;;;;;;0.40;0.40;;;14.90;97.20;;;;;;5120366;28;20230;-64
2022/11/26 08:08:18;;;;;;;0.40;0.40;;;14.90;97.20;;;;;;5113045;28;20275;-63
2022/11/26 08:11:12;;;;;;;2.00;1.90;;;15.10;97.50;;;;;;5112011;28;20223;-63
2022/11/26 08:14:02;;;;;;;0.40;0.40;;;14.90;97.30;;;;;;5112211;28;20195;-63
2022/11/26 08:16:50;;;;;;;0.40;0.40;;;14.90;97.20;;;;;;5104076;28;20466;-63
2022/11/26 08:19:38;;;;;;;0.40;0.40;;;14.90;97.20;;;;;;5092661;28;20373;-63
2022/11/26 08:22:28;;;;;;;0.40;0.40;;;14.90;97.20;;;;;;5093531;28;20690;-63
2022/11/26 08:25:17;;;;;;;0.40;0.40;;;14.90;97.20;;;;;;5093092;28;20216;-63
2022/11/26 08:28:05;;;;;;;0.40;0.40;;;14.90;97.20;;;;;;5093101;28;20207;-63
2022/11/26 08:31:01;;;;;;;0.40;0.40;;;14.90;97.30;;;;;;5092514;28;20295;-63
2022/11/26 08:33:49;;;;;;;0.40;0.40;;;14.90;97.20;;;;;;5093308;28;20196;-63
2022/11/26 08:36:37;;;;;;;0.40;0.40;;;14.90;97.20;;;;;;5093399;28;20205;-63
2022/11/26 08:39:25;;;;;;;0.40;0.40;;;14.90;97.30;;;;;;5091903;28;20253;-63
2022/11/26 08:42:15;;;;;;;0.40;0.40;;;14.90;97.30;;;;;;5092736;28;20676;-63
2022/11/26 08:45:03;;;;;;;0.40;0.40;;;14.90;97.40;;;;;;5092193;28;20339;-63
2022/11/26 08:47:51;;;;;;;0.40;0.40;;;14.90;97.40;;;;;;5093182;28;20561;-64
2022/11/26 08:50:39;;;;;;;0.40;0.40;;;14.80;97.40;;;;;;5094652;28;20226;-64
2022/11/26 08:53:29;;;;;;;0.40;0.40;;;14.80;97.50;;;;;;5096477;28;20207;-64
2022/11/26 08:56:17;;;;;;;0.40;0.40;;;14.80;97.50;;;;;;5097189;28;20303;-63
2022/11/26 08:59:06;;;;;;;0.40;0.40;;;14.80;99.90;;;;;;5097031;28;20271;-63
2022/11/26 09:01:54;;;;;;;0.40;0.40;;;14.80;97.50;;;;;;5096696;28;20200;-63
2022/11/26 09:04:42;;;;;;;0.40;0.40;;;15.10;97.60;;;;;;5095929;28;20247;-63
2022/11/26 09:07:30;;;;;;;0.40;0.40;;;14.80;97.50;;;;;;5095995;28;20200;-63
2022/11/26 09:10:19;;;;;;;0.40;0.40;;;14.80;97.60;;;;;;5095568;28;20223;-63
2022/11/26 09:13:07;;;;;;;0.40;0.40;;;14.80;97.50;;;;;;5096051;28;20786;-64
2022/11/26 09:15:56;;;;;;;0.40;0.40;;;14.90;97.50;;;;;;5096722;28;20274;-63
2022/11/26 09:18:44;;;;;;;0.40;0.40;;;14.90;97.40;;;;;;5115692;28;20595;-64
2022/11/26 09:21:33;;;;;;;0.40;0.40;;;14.90;97.30;;;;;;5115700;28;20231;-64
2022/11/26 09:24:21;;;;;;;0.40;0.40;;;14.90;97.30;;;;;;5114582;28;20683;-63
2022/11/26 09:27:10;;;;;;;0.40;0.40;;;14.90;97.30;;;;;;5134749;28;20262;-64
2022/11/26 09:29:58;;;;;;;0.40;0.40;;;15.00;97.30;;;;;;5135069;28;20279;-64
2022/11/26 09:32:48;;;;;;;0.40;0.40;;;14.90;97.30;;;;;;5134232;28;20202;-64
2022/11/26 09:35:36;;;;;;;0.40;0.40;;;15.00;97.30;;;;;;5134772;28;20195;-64
2022/11/26 09:38:24;;;;;;;0.40;0.40;;;15.00;97.30;;;;;;5127326;28;20255;-64
2022/11/26 09:41:22;;;;;;;0.40;0.40;;;15.00;97.40;;;;;;5129921;28;20225;-64
2022/11/26 09:44:23;;;;;;;0.40;0.40;;;14.90;97.30;;;;;;5117564;28;20191;-63
2022/11/26 09:47:15;;;;;;;0.40;0.40;;;14.90;97.30;;;;;;5115252;28;20203;-63
2022/11/26 09:50:17;;;;;;;0.40;0.40;;;15.00;97.40;;;;;;5114199;28;20776;-63
2022/11/26 09:53:15;;;;;;;0.40;0.40;;;14.90;97.30;;;;;;5114706;28;20252;-63
2022/11/26 09:56:05;;;;;;;0.40;0.40;;;15.80;97.90;;;;;;5114574;28;20202;-63
2022/11/26 09:58:56;;;;;;;0.40;0.40;;;14.90;97.60;;;;;;5113748;28;20683;-63
2022/11/26 10:01:44;;;;;;;0.40;0.40;;;14.90;97.60;;;;;;5114555;28;20195;-63
2022/11/26 10:04:36;;;;;;;0.40;0.40;;;14.90;97.40;;;;;;5115227;28;20199;-63
2022/11/26 10:07:46;;;;;;;0.40;0.40;;;14.90;97.60;;;;;;5115484;28;20199;-63
2022/11/26 10:10:40;;;;;;;0.40;0.40;;;14.90;97.60;;;;;;5114352;28;20250;-63
2022/11/26 10:13:37;;;;;;;0.40;0.40;;;14.90;97.70;;;;;;5115172;28;20274;-63
2022/11/26 10:16:31;;;;;;;0.40;0.40;;;14.90;97.70;;;;;;5114276;28;20328;-64
2022/11/26 10:19:27;;;;;;;0.40;0.40;;;14.90;97.70;;;;;;5115127;28;20230;-63
2022/11/26 10:22:21;;;;;;;0.40;0.40;;;14.90;97.70;;;;;;5114501;28;20329;-63
2022/11/26 10:25:18;;;;;;;0.40;0.40;;;14.90;97.60;;;;;;5113889;28;20300;-63
2022/11/26 10:28:16;;;;;;;0.40;0.40;;;14.90;97.60;;;;;;5114823;28;20201;-63
2022/11/26 10:31:09;;;;;;;0.40;0.40;;;14.90;97.60;;;;;;5113175;28;20215;-63
2022/11/26 10:34:00;;;;;;;0.50;0.50;;;14.90;97.50;;;;;;5114916;28;20209;-63
2022/11/26 10:36:49;;;;;;;0.40;0.40;;;14.90;97.40;;;;;;5113821;28;20222;-63
2022/11/26 10:39:37;;;;;;;0.40;0.40;;;15.00;97.50;;;;;;5113359;28;20661;-63
2022/11/26 10:42:26;;;;;;;0.40;0.40;;;13.60;96.70;;;;;;5114211;28;20200;-63
2022/11/26 10:45:19;;;;;;;0.57;0.57;;;15.00;97.40;;;;;;5114360;28;20274;-62
2022/11/26 10:48:24;;;;;;;0.40;0.40;;;15.00;97.30;;;;;;5113958;28;20351;-63
2022/11/26 10:51:15;;;;;;;0.40;0.40;;;15.00;97.40;;;;;;5113345;28;20230;-63
2022/11/26 10:54:06;;;;;;;0.40;0.40;;;15.00;97.30;;;;;;5113361;28;20278;-63
2022/11/26 10:56:56;;;;;;;0.40;0.40;;;15.00;97.30;;;;;;5114007;28;20205;-63
2022/11/26 10:59:50;;;;;;;0.40;0.40;;;15.00;97.40;;;;;;5113346;28;20808;-63
2022/11/26 11:02:40;;;;;;;0.40;0.40;;;15.00;97.40;;;;;;5113948;28;20202;-66
2022/11/26 11:05:29;;;;;;;0.40;0.40;;;15.00;97.50;;;;;;5113739;28;20218;-66
2022/11/26 11:08:29;;;;;;;0.40;0.40;;;15.00;97.50;;;;;;5112206;28;20570;-65
2022/11/26 11:11:20;;;;;;;0.40;0.40;;;15.00;97.60;;;;;;5113398;28;20287;-65
2022/11/26 11:14:27;;;;;;;0.40;0.40;;;15.00;97.60;;;;;;5113113;28;20686;-66
2022/11/26 11:17:32;;;;;;;0.40;0.40;;;15.10;97.70;;;;;;5100970;28;20283;-65
2022/11/26 11:20:32;;;;;;;0.40;0.40;;;15.00;97.80;;;;;;5093396;28;20238;-66
2022/11/26 11:23:22;;;;;;;0.40;0.40;;;15.10;97.90;;;;;;5093775;28;20322;-66
2022/11/26 11:26:40;;;;;;;0.40;0.40;;;15.10;97.80;;;;;;5092373;28;20204;-65
2022/11/26 11:29:32;;;;;;;0.40;0.40;;;15.10;97.80;;;;;;5093037;28;20306;-65
2022/11/26 11:32:34;;;;;;;0.40;0.40;;;15.20;97.80;;;;;;5092930;28;20200;-65
2022/11/26 11:35:25;;;;;;;0.40;0.40;;;15.10;97.70;;;;;;5093289;28;20285;-66
2022/11/26 11:38:23;;;;;;;0.40;0.40;;;15.20;97.80;;;;;;5093284;28;20234;-66
2022/11/26 11:41:18;;;;;;;0.40;0.40;;;15.10;97.70;;;;;;5092026;28;20853;-66
2022/11/26 11:44:15;;;;;;;0.40;0.40;;;15.20;97.70;;;;;;5092849;28;20279;-66
2022/11/26 11:47:21;;;;;;;0.40;0.40;;;15.20;97.80;;;;;;5092982;28;20220;-66
2022/11/26 11:50:20;;;;;;;0.40;0.40;;;15.20;97.80;;;;;;5091508;28;20219;-66
2022/11/26 11:53:30;;;;;;;0.40;0.40;;;15.20;97.80;;;;;;5093048;28;20284;-66
2022/11/26 11:56:26;;;;;;;0.40;0.40;;;15.20;97.80;;;;;;5093179;28;20326;-66
2022/11/26 12:00:08;;;;;;;0.40;0.40;;;15.20;98.00;;;;;;5092787;28;20775;-66
2022/11/26 12:03:07;;;;;;;0.40;0.40;;;15.20;97.80;;;;;;5094506;28;20200;-66
2022/11/26 12:06:17;;;;;;;0.40;0.40;;;15.20;97.70;;;;;;5095563;28;20198;-66
2022/11/26 12:09:16;;;;;;;0.40;0.40;;;15.20;97.70;;;;;;5095452;28;20196;-66
2022/11/26 12:12:21;;;;;;;0.40;0.40;;;15.20;97.70;;;;;;5093540;28;20196;-66
2022/11/26 12:15:17;;;;;;;0.40;0.40;;;15.20;97.70;;;;;;5091815;28;20200;-66
2022/11/26 12:18:18;;;;;;;0.40;0.40;;;15.20;97.70;;;;;;5111553;28;20196;-66
2022/11/26 12:21:11;;;;;;;0.40;0.40;;;15.20;97.70;;;;;;5110681;28;20315;-66
2022/11/26 12:24:04;;;;;;;0.40;0.40;;;15.20;97.70;;;;;;5113641;28;20226;-66
2022/11/26 12:26:56;;;;;;;0.40;0.40;;;15.20;97.70;;;;;;5116020;28;20290;-66
2022/11/26 12:29:49;;;;;;;0.40;0.40;;;15.20;97.70;;;;;;5115997;28;20215;-66
2022/11/26 12:32:44;;;;;;;0.40;0.40;;;15.10;97.60;;;;;;5115781;28;20206;-66
2022/11/26 12:35:35;;;;;;;0.40;0.40;;;15.10;97.70;;;;;;5115638;28;20203;-66
2022/11/26 12:38:30;;;;;;;0.40;0.40;;;15.10;97.80;;;;;;5116317;28;20207;-66
2022/11/26 12:41:23;;;;;;;0.40;0.40;;;15.10;97.80;;;;;;5115891;28;20199;-66
2022/11/26 12:44:19;;;;;;;0.40;0.40;;;15.10;97.90;;;;;;5115822;28;20199;-66
2022/11/26 12:47:16;;;;;;;0.40;0.40;;;15.10;97.90;;;;;;5115662;28;20219;-65
2022/11/26 12:50:15;;;;;;;0.40;0.40;;;15.10;97.90;;;;;;5114775;28;20223;-66
2022/11/26 12:53:12;;;;;;;0.40;0.40;;;15.10;98.00;;;;;;5114721;28;20797;-66
2022/11/26 12:56:13;;;;;;;0.40;0.40;;;15.00;98.00;;;;;;5114659;28;20274;-66
2022/11/26 12:59:05;;;;;;;0.40;0.40;;;15.00;97.90;;;;;;5115473;28;20273;-66
2022/11/26 13:01:53;;;;;;;0.40;0.40;;;15.00;97.90;;;;;;5114871;28;20282;-66
2022/11/26 13:04:41;;;;;;;0.40;0.40;;;15.00;97.90;;;;;;5115875;28;20690;-66
2022/11/26 13:07:46;;;;;;;0.40;0.40;;;15.00;98.00;;;;;;5114976;28;20219;-66
2022/11/26 13:10:45;;;;;;;0.40;0.40;;;15.00;98.00;;;;;;5114604;28;20222;-66
2022/11/26 13:13:40;;;;;;;0.40;0.40;;;15.00;97.90;;;;;;5114993;28;20683;-66
2022/11/26 13:16:34;;;;;;;0.40;0.40;;;15.00;97.90;;;;;;5109233;28;20199;-66
2022/11/26 13:19:30;;;;;;;0.40;0.40;;;15.00;97.80;;;;;;5095588;28;20239;-66
2022/11/26 13:22:41;;;;;;;0.40;0.40;;;15.00;97.80;;;;;;5094988;28;20196;-66
2022/11/26 13:25:40;;;;;;;0.40;0.40;;;15.00;97.70;;;;;;5095405;28;20203;-66
2022/11/26 13:28:44;;;;;;;0.40;0.40;;;15.00;97.70;;;;;;5095541;28;20687;-66
2022/11/26 13:31:51;;;;;;;0.40;0.40;;;15.10;97.70;;;;;;5094601;28;20694;-66
2022/11/26 13:35:00;;;;;;;0.40;0.40;;;15.10;97.70;;;;;;5095462;28;20672;-66
2022/11/26 13:38:03;;;;;;;0.40;0.40;;;15.10;97.70;;;;;;5094947;28;20280;-65
2022/11/26 13:41:02;;;;;;;0.40;0.40;;;15.10;97.70;;;;;;5094659;28;20255;-65
2022/11/26 13:44:16;;;;;;;0.40;0.40;;;15.10;97.70;;;;;;5095558;28;20279;-66
2022/11/26 13:47:06;;;;;;;0.40;0.40;;;15.10;97.70;;;;;;5074384;28;20224;-66
2022/11/26 13:50:00;;;;;;;0.90;0.90;;;15.10;97.70;;;;;;5095892;28;20224;-65
2022/11/26 13:52:51;;;;;;;0.40;0.40;;;15.10;97.70;;;;;;5096400;28;20287;-65
2022/11/26 13:55:44;;;;;;;0.40;0.40;;;15.10;97.80;;;;;;5094331;28;20211;-65
2022/11/26 13:58:40;;;;;;;0.40;0.40;;;15.10;97.90;;;;;;5095193;28;20228;-65
2022/11/26 14:01:34;;;;;;;0.40;0.40;;;15.00;97.90;;;;;;5093848;28;20719;-65
2022/11/26 14:04:51;;;;;;;0.40;0.40;;;15.10;97.90;;;;;;5094529;28;20575;-65
2022/11/26 14:07:40;;;;;;;0.40;0.40;;;15.10;98.00;;;;;;5094303;28;20757;-65
2022/11/26 14:10:43;;;;;;;0.40;0.40;;;15.10;98.00;;;;;;5093750;28;20223;-66
2022/11/26 14:13:31;;;;;;;1.73;1.63;;;15.10;98.00;;;;;;5093904;28;20645;-65
2022/11/26 14:16:19;;;;;;;0.40;0.40;;;15.10;98.00;;;;;;5098039;28;20270;-65
2022/11/26 14:19:08;;;;;;;0.40;0.40;;;15.00;97.90;;;;;;5113293;28;20271;-66
2022/11/26 14:22:02;;;;;;;0.40;0.40;;;15.80;98.30;;;;;;5113767;28;20195;-66
2022/11/26 14:24:56;;;;;;;0.40;0.40;;;15.10;97.90;;;;;;5113500;28;20191;-66
2022/11/26 14:27:52;;;;;;;0.40;0.40;;;15.10;98.00;;;;;;5112764;28;20264;-66
2022/11/26 14:30:40;;;;;;;0.40;0.40;;;15.10;97.90;;;;;;5112501;28;20714;-66
2022/11/26 14:33:30;;;;;;;0.40;0.40;;;15.10;97.90;;;;;;5113923;28;20233;-65
2022/11/26 14:36:25;;;;;;;0.40;0.40;;;15.10;97.90;;;;;;5112199;28;20276;-66
2022/11/26 14:39:15;;;;;;;0.40;0.40;;;15.10;97.90;;;;;;5112155;28;20238;-65
2022/11/26 14:42:03;;;;;;;12.07;10.97;;;15.10;97.80;;;;;;5112283;28;20199;-66
2022/11/26 14:45:04;;;;;;;0.40;0.40;;;15.10;97.80;;;;;;5112867;28;20220;-66
2022/11/26 14:47:53;;;;;;;0.40;0.40;;;15.10;97.80;;;;;;5111310;28;20498;-66
2022/11/26 14:50:41;;;;;;;0.40;0.40;;;15.00;97.70;;;;;;5111479;28;20709;-65
2022/11/26 14:53:33;;;;;;;0.40;0.40;;;15.00;97.70;;;;;;5112645;28;20278;-66
2022/11/26 14:56:23;;;;;;;0.40;0.40;;;15.00;97.70;;;;;;5111866;28;20195;-66